createdAt,value
2017-06-22T00:03:58.826Z,22.18
2017-06-22T00:08:55.561Z,22.08
2017-06-22T00:13:52.065Z,21.96
2017-06-22T00:18:47.770Z,21.87
2017-06-22T00:23:43.960Z,21.72
2017-06-22T00:28:39.720Z,21.76
2017-06-22T00:33:36.627Z,21.73
2017-06-22T00:38:33.164Z,21.70
2017-06-22T00:43:28.736Z,21.51
2017-06-22T00:48:24.550Z,21.54
2017-06-22T00:53:20.450Z,21.42
2017-06-22T00:58:17.360Z,20.95
2017-06-22T01:03:13.500Z,20.80
2017-06-22T01:08:10.067Z,20.70
2017-06-22T01:13:05.526Z,20.55
2017-06-22T01:18:02.104Z,20.75
2017-06-22T01:22:58.028Z,20.67
2017-06-22T01:27:54.366Z,20.52
2017-06-22T01:32:50.217Z,20.47
2017-06-22T01:37:46.508Z,20.60
2017-06-22T01:42:42.448Z,20.51
2017-06-22T01:47:39.432Z,20.52
2017-06-22T01:52:36.406Z,20.39
2017-06-22T01:57:32.096Z,20.04
2017-06-22T02:02:27.815Z,20.04
2017-06-22T02:07:23.548Z,19.89
2017-06-22T02:12:20.436Z,19.85
2017-06-22T02:17:16.232Z,19.71
2017-06-22T02:22:11.883Z,19.85
2017-06-22T02:27:08.319Z,19.66
2017-06-22T02:32:04.108Z,19.54
2017-06-22T02:36:59.901Z,19.55
2017-06-22T02:41:55.874Z,19.64
2017-06-22T02:46:52.204Z,19.69
2017-06-22T02:51:48.146Z,20.00
2017-06-22T02:56:45.167Z,20.19
2017-06-22T03:01:41.809Z,20.25
2017-06-22T03:06:38.525Z,20.40
2017-06-22T03:11:34.099Z,20.48
2017-06-22T03:16:30.099Z,20.51
2017-06-22T03:21:26.016Z,20.56
2017-06-22T03:26:23.009Z,20.43
2017-06-22T03:31:18.465Z,20.40
2017-06-22T03:36:14.717Z,20.25
2017-06-22T03:41:11.392Z,20.28
2017-06-22T03:46:08.456Z,20.18
2017-06-22T03:51:04.821Z,20.24
2017-06-22T03:56:01.720Z,20.19
2017-06-22T04:00:57.472Z,20.31
2017-06-22T04:05:53.536Z,20.26
2017-06-22T04:10:51.887Z,20.43
2017-06-22T04:15:48.353Z,20.39
2017-06-22T04:20:44.156Z,20.36
2017-06-22T04:25:39.962Z,20.50
2017-06-22T04:30:36.050Z,20.51
2017-06-22T04:35:31.870Z,20.47
2017-06-22T04:40:28.071Z,21.06
2017-06-22T04:45:25.467Z,21.52
2017-06-22T04:50:21.496Z,21.87
2017-06-22T04:55:17.970Z,22.28
2017-06-22T05:00:14.625Z,22.80
2017-06-22T05:05:12.135Z,23.21
2017-06-22T05:10:07.903Z,23.20
2017-06-22T05:15:03.538Z,22.80
2017-06-22T05:19:59.311Z,22.54
2017-06-22T05:24:55.133Z,22.41
2017-06-22T05:29:50.970Z,22.48
2017-06-22T05:34:47.515Z,23.27
2017-06-22T05:39:45.167Z,23.98
2017-06-22T05:44:41.471Z,24.58
2017-06-22T05:49:39.002Z,25.28
2017-06-22T05:54:36.142Z,25.69
2017-06-22T05:59:32.099Z,25.70
2017-06-22T06:04:29.828Z,25.14
2017-06-22T06:09:25.050Z,24.93
2017-06-22T06:14:20.926Z,24.76
2017-06-22T06:19:17.186Z,24.48
2017-06-22T06:24:13.147Z,24.68
2017-06-22T06:29:08.989Z,24.78
2017-06-22T06:34:05.967Z,24.74
2017-06-22T06:39:01.515Z,24.81
2017-06-22T06:43:57.779Z,25.06
2017-06-22T06:48:53.891Z,25.22
2017-06-22T06:53:50.863Z,25.40
2017-06-22T06:58:47.117Z,25.59
2017-06-22T07:03:43.415Z,25.75
2017-06-22T07:08:40.564Z,25.98
2017-06-22T07:13:36.294Z,26.10
2017-06-22T07:18:32.395Z,26.29
2017-06-22T07:23:29.934Z,26.44
2017-06-22T07:28:26.870Z,26.73
2017-06-22T07:33:23.028Z,27.03
2017-06-22T07:38:19.435Z,27.22
2017-06-22T07:43:15.849Z,27.78
2017-06-22T07:48:12.466Z,28.12
2017-06-22T07:53:09.502Z,28.49
2017-06-22T07:58:08.771Z,29.17
2017-06-22T08:03:05.312Z,29.42
2017-06-22T08:08:02.566Z,30.02
2017-06-22T08:13:00.020Z,30.34
2017-06-22T08:17:55.650Z,30.23
2017-06-22T08:22:52.032Z,30.21
2017-06-22T08:27:50.180Z,30.85
2017-06-22T08:32:48.665Z,31.44
2017-06-22T08:37:45.836Z,31.65
2017-06-22T08:42:42.815Z,32.27
2017-06-22T08:47:39.551Z,32.71
2017-06-22T08:52:37.404Z,32.78
2017-06-22T08:57:33.638Z,32.87
2017-06-22T09:02:30.500Z,32.77
2017-06-22T09:07:26.612Z,32.82
2017-06-22T09:12:22.837Z,32.64
2017-06-22T09:17:19.410Z,33.22
2017-06-22T09:22:15.715Z,33.69
2017-06-22T09:27:12.349Z,33.28
2017-06-22T09:32:08.669Z,33.65
2017-06-22T09:37:04.661Z,33.87
2017-06-22T09:42:00.891Z,33.65
2017-06-22T09:46:56.972Z,33.65
2017-06-22T09:51:53.291Z,33.94
2017-06-22T09:56:49.496Z,34.21
2017-06-22T10:01:47.940Z,34.30
2017-06-22T10:06:43.907Z,33.81
2017-06-22T10:11:38.825Z,33.31
2017-06-22T10:16:36.297Z,34.03
2017-06-22T10:21:32.878Z,33.96
2017-06-22T10:26:29.184Z,33.89
2017-06-22T10:31:25.846Z,33.53
2017-06-22T10:36:22.598Z,33.55
2017-06-22T10:41:19.866Z,33.89
2017-06-22T10:46:15.643Z,33.92
2017-06-22T10:51:11.765Z,33.73
2017-06-22T10:56:07.358Z,33.61
2017-06-22T11:01:03.835Z,33.39
2017-06-22T11:06:00.495Z,33.69
2017-06-22T11:10:57.149Z,34.17
2017-06-22T11:15:54.053Z,34.50
2017-06-22T11:20:50.222Z,33.80
2017-06-22T11:25:46.348Z,33.65
2017-06-22T11:30:41.944Z,33.55
2017-06-22T11:35:38.643Z,33.50
2017-06-22T11:40:35.274Z,33.96
2017-06-22T11:45:32.046Z,34.03
2017-06-22T11:50:29.382Z,34.47
2017-06-22T11:55:26.111Z,34.81
2017-06-22T12:00:23.077Z,34.96
2017-06-22T12:05:20.751Z,34.95
2017-06-22T12:10:17.084Z,35.02
2017-06-22T12:15:13.448Z,34.66
2017-06-22T12:20:09.103Z,34.85
2017-06-22T12:25:05.127Z,34.74
2017-06-22T12:30:01.106Z,34.50
2017-06-22T12:34:57.479Z,34.54
2017-06-22T12:39:53.694Z,34.99
2017-06-22T12:44:48.638Z,35.05
2017-06-22T12:49:45.895Z,34.85
2017-06-22T12:54:41.909Z,34.83
2017-06-22T12:59:37.925Z,34.88
2017-06-22T13:04:34.047Z,34.57
2017-06-22T13:09:29.461Z,34.39
2017-06-22T13:14:25.611Z,34.51
2017-06-22T13:19:21.742Z,34.89
2017-06-22T13:24:18.860Z,34.66
2017-06-22T13:29:15.366Z,34.48
2017-06-22T13:34:10.630Z,34.50
2017-06-22T13:39:07.500Z,34.58
2017-06-22T13:44:03.039Z,34.47
2017-06-22T13:48:58.875Z,34.25
2017-06-22T13:53:54.985Z,34.14
2017-06-22T13:58:51.764Z,34.13
2017-06-22T14:03:48.259Z,34.05
2017-06-22T14:08:44.137Z,33.99
2017-06-22T14:13:39.345Z,33.89
2017-06-22T14:18:34.961Z,33.83
2017-06-22T14:23:30.939Z,33.64
2017-06-22T14:28:26.665Z,33.57
2017-06-22T14:33:22.626Z,33.71
2017-06-22T14:38:18.681Z,33.59
2017-06-22T14:43:16.057Z,33.61
2017-06-22T14:48:13.025Z,33.57
2017-06-22T14:53:09.687Z,33.61
2017-06-22T14:58:05.393Z,33.39
2017-06-22T15:03:01.427Z,33.40
2017-06-22T15:07:57.585Z,33.30
2017-06-22T15:12:53.431Z,33.43
2017-06-22T15:17:50.602Z,33.45
2017-06-22T15:22:46.412Z,33.46
2017-06-22T15:27:42.710Z,33.55
2017-06-22T15:32:38.861Z,33.52
2017-06-22T15:37:35.769Z,33.42
2017-06-22T15:42:31.755Z,33.28
2017-06-22T15:47:27.754Z,33.05
2017-06-22T15:52:24.616Z,32.67
2017-06-22T15:57:20.099Z,32.41
2017-06-22T16:02:17.277Z,32.49
2017-06-22T16:07:13.061Z,32.48
2017-06-22T16:12:09.492Z,32.33
2017-06-22T16:17:07.224Z,32.18
2017-06-22T16:22:02.455Z,32.14
2017-06-22T16:26:58.401Z,31.96
2017-06-22T16:31:54.635Z,32.03
2017-06-22T16:36:50.558Z,31.66
2017-06-22T16:41:47.722Z,31.66
2017-06-22T16:46:44.226Z,31.69
2017-06-22T16:51:41.960Z,31.58
2017-06-22T16:56:38.114Z,31.70
2017-06-22T17:01:34.123Z,31.61
2017-06-22T17:06:31.030Z,31.33
2017-06-22T17:11:27.527Z,31.07
2017-06-22T17:16:23.254Z,30.91
2017-06-22T17:21:19.613Z,30.73
2017-06-22T17:26:16.679Z,30.57
2017-06-22T17:31:12.351Z,30.34
2017-06-22T17:36:08.855Z,30.31
2017-06-22T17:41:04.609Z,30.03
2017-06-22T17:46:00.442Z,29.72
2017-06-22T17:50:56.486Z,29.60
2017-06-22T17:55:52.357Z,29.45
2017-06-22T18:00:48.339Z,29.44
2017-06-22T18:05:44.359Z,29.22
2017-06-22T18:10:42.186Z,29.02
2017-06-22T18:15:38.814Z,28.76
2017-06-22T18:20:34.390Z,28.67
2017-06-22T18:25:31.220Z,28.57
2017-06-22T18:30:26.979Z,28.51
2017-06-22T18:35:22.976Z,28.08
2017-06-22T18:40:18.722Z,27.27
2017-06-22T18:45:14.157Z,26.56
2017-06-22T18:50:09.794Z,25.96
2017-06-22T18:55:06.605Z,25.83
2017-06-22T19:00:02.253Z,25.68
2017-06-22T19:04:59.336Z,25.43
2017-06-22T19:09:55.848Z,25.41
2017-06-22T19:14:51.336Z,25.46
2017-06-22T19:19:47.622Z,25.06
2017-06-22T19:24:43.286Z,24.76
2017-06-22T19:29:38.904Z,24.40
2017-06-22T19:34:34.657Z,24.08
2017-06-22T19:39:31.821Z,23.86
2017-06-22T19:44:27.310Z,24.01
2017-06-22T19:49:23.109Z,23.66
2017-06-22T19:54:19.085Z,23.54
2017-06-22T19:59:16.631Z,23.06
2017-06-22T20:04:12.082Z,23.06
2017-06-22T20:09:07.960Z,22.84
2017-06-22T20:14:04.689Z,23.12
2017-06-22T20:19:00.799Z,23.03
2017-06-22T20:23:56.735Z,22.85
2017-06-22T20:28:52.468Z,22.68
2017-06-22T20:33:48.284Z,22.85
2017-06-22T20:38:44.379Z,22.73
2017-06-22T20:43:40.302Z,22.81
2017-06-22T20:48:36.045Z,22.59
2017-06-22T20:53:32.357Z,22.47
2017-06-22T20:58:29.272Z,22.51
2017-06-22T21:03:24.714Z,22.30
2017-06-22T21:08:20.672Z,22.32
2017-06-22T21:13:17.601Z,22.30
2017-06-22T21:18:13.599Z,22.29
2017-06-22T21:23:09.863Z,22.41
2017-06-22T21:28:05.844Z,22.43
2017-06-22T21:33:02.078Z,22.39
2017-06-22T21:37:57.968Z,22.39
2017-06-22T21:42:54.199Z,22.32
2017-06-22T21:47:50.184Z,22.23
2017-06-22T21:52:47.003Z,22.23
2017-06-22T21:57:43.203Z,22.17
2017-06-22T22:02:39.171Z,21.82
2017-06-22T22:07:35.328Z,21.79
2017-06-22T22:12:31.206Z,21.79
2017-06-22T22:17:27.364Z,21.87
2017-06-22T22:22:23.554Z,21.72
2017-06-22T22:27:20.387Z,21.83
2017-06-22T22:32:16.438Z,21.67
2017-06-22T22:37:12.302Z,21.58
2017-06-22T22:42:08.621Z,21.62
2017-06-22T22:47:04.409Z,21.52
2017-06-22T22:52:00.237Z,21.43
2017-06-22T22:56:56.096Z,21.30
2017-06-22T23:01:52.299Z,21.50
2017-06-22T23:06:49.284Z,21.12
2017-06-22T23:11:45.994Z,21.17
2017-06-22T23:16:41.631Z,21.27
2017-06-22T23:21:37.512Z,21.20
2017-06-22T23:26:34.400Z,21.12
2017-06-22T23:31:30.283Z,20.97
2017-06-22T23:36:26.742Z,21.00
2017-06-22T23:41:22.853Z,20.88
2017-06-22T23:46:18.803Z,21.05
2017-06-22T23:51:15.872Z,21.00
2017-06-22T23:56:12.357Z,20.93
